Time,TemperatureF,DewpointF,PressureIn,WindDirection,WindDirectionDegrees,WindSpeedMPH,WindSpeedGustMPH,Humidity,HourlyPrecipIn,Conditions,Clouds,dailyrainin,SoftwareType,DateUTC
2013-06-22 00:02:00,69.2,65.0,24.94,East,97,0.0,0.0,88,0.00,,,0.00,weatherlink.com 1.10,2013-06-22 02:02:00,
2013-06-22 00:17:00,68.5,65.0,24.94,East,97,0.0,0.0,88,0.00,,,0.00,weatherlink.com 1.10,2013-06-22 02:17:00,
2013-06-22 00:32:00,67.9,65.0,24.94,East,97,0.0,0.0,89,0.00,,,0.00,weatherlink.com 1.10,2013-06-22 02:32:00,
2013-06-22 00:48:00,67.2,64.0,24.94,East,96,0.0,0.0,90,0.00,,,0.00,weatherlink.com 1.10,2013-06-22 02:48:00,
2013-06-22 01:03:00,66.5,64.0,24.94,East,97,0.0,0.0,92,0.00,,,0.00,weatherlink.com 1.10,2013-06-22 03:03:00,
2013-06-22 01:19:00,65.8,64.0,0.00,East,96,0.0,0.0,93,0.00,,,0.00,weatherlink.com 1.10,2013-06-22 03:19:00,
2013-06-22 01:34:00,65.2,63.0,0.00,East,97,0.0,0.0,94,0.00,,,0.00,weatherlink.com 1.10,2013-06-22 03:34:00,
2013-06-22 01:49:00,65.0,63.0,0.00,East,97,0.0,0.0,94,0.00,,,0.00,weatherlink.com 1.10,2013-06-22 03:49:00,
2013-06-22 02:05:00,64.8,63.0,0.00,East,97,0.0,0.0,95,0.00,,,0.00,weatherlink.com 1.10,2013-06-22 04:05:00,
2013-06-22 02:20:00,64.6,63.0,0.00,East,97,0.0,0.0,95,0.00,,,0.00,weatherlink.com 1.10,2013-06-22 04:20:00,
2013-06-22 02:36:00,63.9,62.0,0.00,East,96,0.0,0.0,95,0.00,,,0.00,weatherlink.com 1.10,2013-06-22 04:36:00,
2013-06-22 02:51:00,63.7,63.0,0.00,East,97,0.0,0.0,96,0.00,,,0.00,weatherlink.com 1.10,2013-06-22 04:51:00,
2013-06-22 03:06:00,63.2,62.0,0.00,East,97,0.0,0.0,96,0.00,,,0.00,weatherlink.com 1.10,2013-06-22 05:06:00,
2013-06-22 03:22:00,63.1,62.0,0.00,East,96,0.0,0.0,96,0.00,,,0.00,weatherlink.com 1.10,2013-06-22 05:22:00,
2013-06-22 03:37:00,62.7,62.0,0.00,East,96,0.0,0.0,97,0.00,,,0.00,weatherlink.com 1.10,2013-06-22 05:37:00,
2013-06-22 03:52:00,62.2,61.0,0.00,East,96,0.0,0.0,96,0.00,,,0.00,weatherlink.com 1.10,2013-06-22 05:52:00,
2013-06-22 04:08:00,62.2,61.0,28.30,East,96,0.0,0.0,97,0.00,,,0.00,weatherlink.com 1.10,2013-06-22 06:08:00,
2013-06-22 04:23:00,61.7,61.0,28.30,East,97,0.0,0.0,97,0.00,,,0.00,weatherlink.com 1.10,2013-06-22 06:23:00,
2013-06-22 04:38:00,61.5,61.0,28.30,East,97,0.0,0.0,97,0.00,,,0.00,weatherlink.com 1.10,2013-06-22 06:38:00,
2013-06-22 04:54:00,61.3,60.0,28.30,East,97,0.0,0.0,97,0.00,,,0.00,weatherlink.com 1.10,2013-06-22 06:54:00,
2013-06-22 05:09:00,60.6,60.0,28.30,East,96,0.0,0.0,97,0.00,,,0.00,weatherlink.com 1.10,2013-06-22 07:09:00,
2013-06-22 05:25:00,60.6,60.0,28.30,East,96,0.0,0.0,97,0.00,,,0.00,weatherlink.com 1.10,2013-06-22 07:25:00,
2013-06-22 05:40:00,59.7,59.0,0.00,East,97,0.0,0.0,97,0.00,,,0.00,weatherlink.com 1.10,2013-06-22 07:40:00,
2013-06-22 05:55:00,59.6,59.0,0.00,East,96,0.0,0.0,98,0.00,,,0.00,weatherlink.com 1.10,2013-06-22 07:55:00,
2013-06-22 06:10:00,59.8,59.0,0.00,East,97,0.0,0.0,98,0.00,,,0.00,weatherlink.com 1.10,2013-06-22 08:10:00,
2013-06-22 06:26:00,59.7,59.0,0.00,East,97,0.0,0.0,98,0.00,,,0.00,weatherlink.com 1.10,2013-06-22 08:26:00,
2013-06-22 06:41:00,59.7,59.0,0.00,East,97,0.0,2.0,98,0.00,,,0.00,weatherlink.com 1.10,2013-06-22 08:41:00,
2013-06-22 06:56:00,59.4,59.0,0.00,East,97,0.0,0.0,98,0.00,,,0.00,weatherlink.com 1.10,2013-06-22 08:56:00,
2013-06-22 07:12:00,59.1,59.0,0.00,East,97,0.0,0.0,98,0.00,,,0.00,weatherlink.com 1.10,2013-06-22 09:12:00,
2013-06-22 07:27:00,58.6,58.0,0.00,East,97,0.0,0.0,98,0.00,,,0.00,weatherlink.com 1.10,2013-06-22 09:27:00,
2013-06-22 07:42:00,58.2,58.0,0.00,East,97,0.0,0.0,98,0.00,,,0.00,weatherlink.com 1.10,2013-06-22 09:42:00,
2013-06-22 07:58:00,58.1,58.0,0.00,East,97,0.0,0.0,98,0.00,,,0.00,weatherlink.com 1.10,2013-06-22 09:58:00,
2013-06-22 08:13:00,57.7,57.0,0.00,East,97,0.0,0.0,98,0.00,,,0.00,weatherlink.com 1.10,2013-06-22 10:13:00,
2013-06-22 08:28:00,57.6,57.0,0.00,East,96,0.0,0.0,98,0.00,,,0.00,weatherlink.com 1.10,2013-06-22 10:28:00,
2013-06-22 08:44:00,57.6,57.0,0.00,East,97,0.0,0.0,98,0.00,,,0.00,weatherlink.com 1.10,2013-06-22 10:44:00,
2013-06-22 08:59:00,58.4,58.0,0.00,East,97,0.0,0.0,98,0.00,,,0.00,weatherlink.com 1.10,2013-06-22 10:59:00,
2013-06-22 09:14:00,59.1,59.0,0.00,East,97,0.0,0.0,98,0.00,,,0.00,weatherlink.com 1.10,2013-06-22 11:14:00,
2013-06-22 09:30:00,60.7,60.0,0.00,East,97,0.0,2.0,99,0.00,,,0.00,weatherlink.com 1.10,2013-06-22 11:30:00,
2013-06-22 09:45:00,62.0,62.0,0.00,East,97,0.0,3.0,99,0.00,,,0.00,weatherlink.com 1.10,2013-06-22 11:45:00,
2013-06-22 10:00:00,64.0,64.0,0.00,East,97,0.0,0.0,99,0.00,,,0.00,weatherlink.com 1.10,2013-06-22 12:00:00,
2013-06-22 10:16:00,64.6,64.0,0.00,East,97,1.0,3.0,99,0.00,,,0.00,weatherlink.com 1.10,2013-06-22 12:16:00,
2013-06-22 10:31:00,66.1,66.0,0.00,East,97,0.0,1.0,98,0.00,,,0.00,weatherlink.com 1.10,2013-06-22 12:31:00,
2013-06-22 10:46:00,68.2,66.0,0.00,East,97,1.0,3.0,93,0.00,,,0.00,weatherlink.com 1.10,2013-06-22 12:46:00,
2013-06-22 11:02:00,70.0,66.0,0.00,NW,326,3.0,6.0,86,0.00,,,0.00,weatherlink.com 1.10,2013-06-22 13:02:00,
2013-06-22 11:17:00,72.5,66.0,0.00,NNW,327,3.0,4.0,80,0.00,,,0.00,weatherlink.com 1.10,2013-06-22 13:17:00,
2013-06-22 11:33:00,74.4,67.0,0.00,ENE,60,2.0,4.0,78,0.00,,,0.00,weatherlink.com 1.10,2013-06-22 13:33:00,
2013-06-22 11:49:00,74.7,66.0,0.00,NNE,17,1.0,4.0,74,0.00,,,0.00,weatherlink.com 1.10,2013-06-22 13:49:00,
2013-06-22 12:04:00,74.8,65.0,0.00,ESE,106,3.0,6.0,72,0.00,,,0.00,weatherlink.com 1.10,2013-06-22 14:04:00,
2013-06-22 12:20:00,76.3,67.0,0.00,SE,134,2.0,5.0,73,0.00,,,0.00,weatherlink.com 1.10,2013-06-22 14:20:00,
2013-06-22 12:35:00,76.1,67.0,0.00,East,82,2.0,5.0,73,0.00,,,0.00,weatherlink.com 1.10,2013-06-22 14:35:00,
2013-06-22 12:50:00,76.9,68.0,0.00,West,268,0.0,5.0,74,0.00,,,0.00,weatherlink.com 1.10,2013-06-22 14:50:00,
2013-06-22 13:05:00,78.0,66.0,0.00,NNW,342,2.0,4.0,67,0.00,,,0.00,weatherlink.com 1.10,2013-06-22 15:05:00,
2013-06-22 13:21:00,76.4,66.0,0.00,WNW,290,2.0,6.0,70,0.00,,,0.00,weatherlink.com 1.10,2013-06-22 15:21:00,
2013-06-22 13:36:00,76.7,67.0,0.00,WSW,250,4.0,7.0,71,0.00,,,0.00,weatherlink.com 1.10,2013-06-22 15:36:00,
2013-06-22 13:51:00,78.4,69.0,0.00,NE,53,3.0,5.0,73,0.00,,,0.00,weatherlink.com 1.10,2013-06-22 15:51:00,
2013-06-22 14:07:00,78.0,67.0,0.00,North,360,2.0,6.0,70,0.00,,,0.00,weatherlink.com 1.10,2013-06-22 16:07:00,
2013-06-22 14:22:00,78.8,66.0,0.00,NNW,346,2.0,7.0,66,0.00,,,0.00,weatherlink.com 1.10,2013-06-22 16:22:00,
2013-06-22 14:38:00,78.2,68.0,0.00,NW,309,2.0,8.0,70,0.00,,,0.00,weatherlink.com 1.10,2013-06-22 16:38:00,
2013-06-22 14:53:00,79.5,67.0,0.00,NNW,340,3.0,6.0,65,0.00,,,0.00,weatherlink.com 1.10,2013-06-22 16:53:00,
2013-06-22 15:08:00,79.9,67.0,0.00,NNE,22,0.0,3.0,64,0.01,,,0.01,weatherlink.com 1.10,2013-06-22 17:08:00,
2013-06-22 15:24:00,78.3,67.0,0.00,NE,42,3.0,6.0,69,0.01,,,0.01,weatherlink.com 1.10,2013-06-22 17:24:00,
2013-06-22 15:39:00,79.8,69.0,0.00,SSW,208,0.0,6.0,69,0.01,,,0.01,weatherlink.com 1.10,2013-06-22 17:39:00,
2013-06-22 15:54:00,81.1,67.0,0.00,NNW,347,0.0,7.0,63,0.00,,,0.01,weatherlink.com 1.10,2013-06-22 17:54:00,
2013-06-22 16:09:00,81.8,67.0,0.00,ENE,73,3.0,5.0,61,0.00,,,0.01,weatherlink.com 1.10,2013-06-22 18:09:00,
2013-06-22 16:25:00,81.6,67.0,0.00,NW,326,1.0,4.0,61,0.00,,,0.01,weatherlink.com 1.10,2013-06-22 18:25:00,
2013-06-22 16:40:00,81.7,65.0,0.00,SE,132,2.0,5.0,58,0.00,,,0.01,weatherlink.com 1.10,2013-06-22 18:40:00,
2013-06-22 16:56:00,81.9,66.0,0.00,South,184,0.0,7.0,58,0.00,,,0.01,weatherlink.com 1.10,2013-06-22 18:56:00,
2013-06-22 17:11:00,82.3,68.0,0.00,SE,130,0.0,4.0,61,0.00,,,0.01,weatherlink.com 1.10,2013-06-22 19:11:00,
2013-06-22 17:26:00,82.5,68.0,0.00,North,360,0.0,7.0,61,0.00,,,0.01,weatherlink.com 1.10,2013-06-22 19:26:00,
2013-06-22 17:42:00,82.7,66.0,0.00,WSW,244,0.0,3.0,58,0.00,,,0.01,weatherlink.com 1.10,2013-06-22 19:42:00,
2013-06-22 17:57:00,83.5,65.0,0.00,SE,126,0.0,4.0,54,0.00,,,0.01,weatherlink.com 1.10,2013-06-22 19:57:00,
2013-06-22 18:12:00,83.4,68.0,0.00,SSE,155,0.0,5.0,59,0.00,,,0.01,weatherlink.com 1.10,2013-06-22 20:12:00,
2013-06-22 18:28:00,82.8,64.0,0.00,ESE,122,0.0,7.0,53,0.00,,,0.01,weatherlink.com 1.10,2013-06-22 20:28:00,
2013-06-22 18:43:00,83.5,67.0,0.00,East,87,3.0,4.0,57,0.00,,,0.01,weatherlink.com 1.10,2013-06-22 20:43:00,
2013-06-22 18:58:00,83.0,64.0,0.00,East,80,1.0,4.0,52,0.00,,,0.01,weatherlink.com 1.10,2013-06-22 20:58:00,
2013-06-22 19:13:00,83.8,66.0,0.00,ESE,114,1.0,3.0,56,0.00,,,0.01,weatherlink.com 1.10,2013-06-22 21:13:00,
2013-06-22 19:29:00,83.4,64.0,0.00,ESE,106,0.0,3.0,52,0.00,,,0.01,weatherlink.com 1.10,2013-06-22 21:29:00,
2013-06-22 19:44:00,83.3,65.0,0.00,SE,130,0.0,5.0,55,0.00,,,0.01,weatherlink.com 1.10,2013-06-22 21:44:00,
2013-06-22 19:59:00,83.5,65.0,0.00,East,84,0.0,4.0,54,0.00,,,0.01,weatherlink.com 1.10,2013-06-22 21:59:00,
2013-06-22 20:15:00,83.4,66.0,0.00,ESE,102,3.0,4.0,55,0.00,,,0.01,weatherlink.com 1.10,2013-06-22 22:15:00,
2013-06-22 20:30:00,82.8,67.0,0.00,East,94,1.0,5.0,58,0.00,,,0.01,weatherlink.com 1.10,2013-06-22 22:30:00,
2013-06-22 20:45:00,82.2,66.0,0.00,SE,144,0.0,2.0,58,0.00,,,0.01,weatherlink.com 1.10,2013-06-22 22:45:00,
2013-06-22 21:01:00,81.9,67.0,0.00,SE,130,0.0,3.0,60,0.00,,,0.01,weatherlink.com 1.10,2013-06-22 23:01:00,
2013-06-22 21:16:00,81.2,66.0,0.00,ESE,113,0.0,4.0,60,0.00,,,0.01,weatherlink.com 1.10,2013-06-22 23:16:00,
2013-06-22 21:32:00,81.0,66.0,0.00,ESE,113,0.0,1.0,60,0.00,,,0.01,weatherlink.com 1.10,2013-06-22 23:32:00,
2013-06-22 21:47:00,80.1,67.0,0.00,ESE,113,0.0,2.0,65,0.00,,,0.01,weatherlink.com 1.10,2013-06-22 23:47:00,
2013-06-22 22:02:00,79.2,67.0,0.00,ESE,111,0.0,3.0,66,0.00,,,0.01,weatherlink.com 1.10,2013-06-23 00:02:00,
2013-06-22 22:18:00,78.5,67.0,0.00,ESE,111,0.0,1.0,68,0.00,,,0.01,weatherlink.com 1.10,2013-06-23 00:18:00,
2013-06-22 22:34:00,77.2,68.0,0.00,ESE,111,0.0,0.0,73,0.00,,,0.01,weatherlink.com 1.10,2013-06-23 00:34:00,
2013-06-22 22:49:00,75.7,68.0,0.00,ESE,111,0.0,0.0,76,0.00,,,0.01,weatherlink.com 1.10,2013-06-23 00:49:00,
2013-06-22 23:04:00,74.1,68.0,0.00,ESE,111,0.0,1.0,80,0.00,,,0.01,weatherlink.com 1.10,2013-06-23 01:04:00,
2013-06-22 23:20:00,72.6,67.0,0.00,ESE,111,0.0,1.0,83,0.00,,,0.01,weatherlink.com 1.10,2013-06-23 01:20:00,
2013-06-22 23:35:00,70.9,67.0,0.00,ESE,111,1.0,1.0,87,0.00,,,0.01,weatherlink.com 1.10,2013-06-23 01:35:00,
2013-06-22 23:50:00,69.8,66.0,0.00,ESE,111,0.0,2.0,89,0.00,,,0.01,weatherlink.com 1.10,2013-06-23 01:50:00,